Deerfield, MO (64741)

12:46 PM CST on December 21, 2014 (GMT -0600)
Vernon Co. EOC | Change Station
CLOSE
Current Station
Personal Weather Station
Location: Nevada, MO
Elevation: 900 ft
Nearby Weather Stations

Elev 900 ft 37.84 °N, 94.35 °W | Updated 1 minute ago

Overcast
Overcast
43.6 °F
Feels Like 41 °F
N
4.0
Wind Variable Wind from SSE
Gusts 5.0 mph

Today
High -- | Low -- °F
--% Chance of Precip.
Yesterday
High -- | Low -- °F
Precip. -- in
7:29 AM 5:02 PM
Waning Crescent, 0% visible
Pressure 29.94 in
Visibility 5.0 miles
Clouds Overcast 900 ft
Windchill 41 °F
Dew Point 41 °F
Humidity 92%
Rainfall 0.04 in
Snow Depth Not available.
UV 1 out of 12
Pollen 3.70 out of 12
Air Quality Not available.
Flu Activity Not available.
METAR KPTS 211835Z AUTO 20009KT 5SM BR OVC009 07/07 A2994 RMK AO2 T00700071

More Conditions Fewer Conditions

Pressure 29.94 in
Visibility 5.0 miles
Clouds Overcast 900 ft
Windchill 41 °F
Dew Point 41 °F
Humidity 92%
Rainfall 0.04 in
Snow Depth Not available.
UV 1 out of 12
Pollen 3.70 out of 12
Air Quality Not available.
Flu Activity Not available.
METAR KPTS 211835Z AUTO 20009KT 5SM BR OVC009 07/07 A2994 RMK AO2 T00700071

More Conditions Fewer Conditions

10-Day Weather Forecast

Almanac

Astronomy

Dec. 21, 2014 Rise Set
Actual Time
Civil Twilight
Nautical Twilight
Astronomical Twilight
Moon
Length of Visible Light
Length of Day
Tomorrow will be .
, % of the Moon is Illuminated

Today's Extremes

State Highs State Lows

Community

WunderPhotos

Upload Photos

1,779,451 photos uploaded!

WunderBlogs® & News

Nearby

Air Quality

  Air Quality AQ Index Pollutant
Not available.

Snow Depth

Station Depth Elevation

Earthquake Activity

City Distance Mag. Time & Date
Minimum magnitude displayed is 2.5.

Coastal Water Temperatures

Place Temperature

Nearby Weather Stations